Time;durP1;ratioP1;P1;durP2;ratioP2;P2;SDS_P1;SDS_P2;PMS_P1;PMS_P2;Temp;Humidity;BMP_temperature;BMP_pressure;BME280_temperature;BME280_humidity;BME280_pressure;Samples;Min_cycle;Max_cycle;Signal;HPM_P1;HPM_P2
2022/09/22 00:01:05;;;;;;;6.80;6.20;;;12.30;99.90;;;;;;5015748;28;20969;-65
2022/09/22 00:03:39;;;;;;;7.57;6.97;;;12.10;99.90;;;;;;5014452;28;20437;-65
2022/09/22 00:06:10;;;;;;;9.57;7.50;;;12.20;99.90;;;;;;5015475;28;20831;-65
2022/09/22 00:08:39;;;;;;;8.43;7.73;;;12.10;99.90;;;;;;5014370;28;20436;-65
2022/09/22 00:11:15;;;;;;;8.00;7.30;;;12.10;99.90;;;;;;5015237;28;20421;-65
2022/09/22 00:13:44;;;;;;;9.43;8.33;;;12.10;99.90;;;;;;5000812;28;20442;-65
2022/09/22 00:16:12;;;;;;;8.10;7.27;;;12.10;99.90;;;;;;4995419;28;20772;-65
2022/09/22 00:18:38;;;;;;;9.60;6.60;;;12.10;99.90;;;;;;5005344;28;20434;-65
2022/09/22 00:21:11;;;;;;;8.20;7.43;;;12.10;99.90;;;;;;5015148;28;20738;-65
2022/09/22 00:23:38;;;;;;;7.70;7.07;;;12.10;99.90;;;;;;5015846;28;20159;-65
2022/09/22 00:26:06;;;;;;;7.57;6.67;;;12.10;99.90;;;;;;5014396;28;20523;-65
2022/09/22 00:28:32;;;;;;;6.73;6.23;;;12.00;99.90;;;;;;5013065;28;20483;-65
2022/09/22 00:30:58;;;;;;;7.07;6.20;;;12.00;99.90;;;;;;5014853;28;20443;-65
2022/09/22 00:33:24;;;;;;;6.70;6.20;;;12.00;99.90;;;;;;5014546;28;20445;-65
2022/09/22 00:35:57;;;;;;;8.80;6.40;;;12.00;99.90;;;;;;5017505;28;20254;-65
2022/09/22 00:38:23;;;;;;;7.00;6.43;;;12.00;99.90;;;;;;5014841;28;20187;-65
2022/09/22 00:40:49;;;;;;;6.60;6.00;;;12.00;99.90;;;;;;5015430;28;20448;-65
2022/09/22 00:43:19;;;;;;;7.27;5.40;;;12.00;99.90;;;;;;5014754;28;20171;-65
2022/09/22 00:45:53;;;;;;;6.13;5.63;;;11.90;99.90;;;;;;5015320;28;20445;-65
2022/09/22 00:48:22;;;;;;;7.03;6.53;;;12.00;99.90;;;;;;5013214;28;20964;-65
2022/09/22 00:50:51;;;;;;;6.23;5.73;;;11.90;99.90;;;;;;5015478;28;20446;-65
2022/09/22 00:53:19;;;;;;;7.60;5.80;;;11.90;99.90;;;;;;5015071;28;20990;-65
2022/09/22 00:55:56;;;;;;;6.40;5.80;;;11.90;99.90;;;;;;5014273;28;20438;-65
2022/09/22 00:58:30;;;;;;;5.80;5.40;;;11.90;99.90;;;;;;5014208;28;20433;-65
2022/09/22 01:00:56;;;;;;;5.90;5.37;;;11.80;99.90;;;;;;5013706;28;20511;-65
2022/09/22 01:03:25;;;;;;;6.47;5.20;;;11.80;99.90;;;;;;5014055;28;20513;-65
2022/09/22 01:05:54;;;;;;;6.13;5.53;;;11.80;99.90;;;;;;5015104;28;20568;-65
2022/09/22 01:08:21;;;;;;;5.07;4.77;;;11.90;99.90;;;;;;5013341;28;20437;-65
2022/09/22 01:10:48;;;;;;;6.10;5.50;;;11.80;99.90;;;;;;5014891;28;20409;-65
2022/09/22 01:13:19;;;;;;;6.30;5.53;;;11.80;99.90;;;;;;5014130;28;20471;-65
2022/09/22 01:16:06;;;;;;;6.50;5.40;;;11.80;99.90;;;;;;5013635;28;20442;-65
2022/09/22 01:18:52;;;;;;;14.03;6.13;;;11.80;99.90;;;;;;5013080;28;20448;-65
2022/09/22 01:21:26;;;;;;;8.33;5.60;;;11.80;99.90;;;;;;5013649;28;20441;-65
2022/09/22 01:23:55;;;;;;;7.40;6.77;;;11.80;99.90;;;;;;5014728;28;20452;-65
2022/09/22 01:26:36;;;;;;;5.70;5.20;;;11.70;99.90;;;;;;5014552;28;20417;-65
2022/09/22 01:29:26;;;;;;;6.60;6.10;;;11.70;99.90;;;;;;5012703;28;20440;-65
2022/09/22 01:31:54;;;;;;;5.63;5.13;;;11.70;99.90;;;;;;5014507;28;20439;-65
2022/09/22 01:34:36;;;;;;;5.47;5.00;;;11.70;99.90;;;;;;5013407;28;20771;-65
2022/09/22 01:37:21;;;;;;;5.80;5.30;;;11.70;99.90;;;;;;5013329;28;20488;-66
2022/09/22 01:39:52;;;;;;;6.10;5.60;;;11.70;99.90;;;;;;5011648;28;20785;-65
2022/09/22 01:42:43;;;;;;;5.90;5.40;;;11.60;99.90;;;;;;5013669;28;20414;-65
2022/09/22 01:45:25;;;;;;;6.27;5.77;;;11.60;99.90;;;;;;5012683;28;20546;-65
2022/09/22 01:47:56;;;;;;;6.70;6.00;;;11.60;99.90;;;;;;5012813;28;20517;-65
2022/09/22 01:50:31;;;;;;;6.60;6.10;;;11.60;99.90;;;;;;5014356;28;20395;-65
2022/09/22 01:53:02;;;;;;;5.97;5.40;;;11.60;99.90;;;;;;5013434;28;20536;-66
2022/09/22 01:55:34;;;;;;;6.20;5.70;;;11.50;99.90;;;;;;5013032;28;20437;-65
2022/09/22 01:58:15;;;;;;;7.77;5.37;;;11.50;99.90;;;;;;5012191;28;20906;-65
2022/09/22 02:01:15;;;;;;;5.70;5.30;;;11.60;99.90;;;;;;4996512;28;20421;-65
2022/09/22 02:04:05;;;;;;;19.17;6.13;;;11.50;99.90;;;;;;4996255;28;20429;-65
2022/09/22 02:06:42;;;;;;;6.33;5.83;;;11.50;99.90;;;;;;5013954;28;20406;-65
2022/09/22 02:09:15;;;;;;;5.60;5.20;;;11.50;99.90;;;;;;4993459;28;20783;-65
2022/09/22 02:11:41;;;;;;;6.30;5.80;;;11.50;99.90;;;;;;5013714;28;20445;-65
2022/09/22 02:14:10;;;;;;;6.87;6.27;;;11.50;99.90;;;;;;5013363;28;20425;-65
2022/09/22 02:16:36;;;;;;;6.27;5.57;;;11.50;99.90;;;;;;5006123;28;20435;-65
2022/09/22 02:19:10;;;;;;;6.50;5.40;;;11.50;99.90;;;;;;4995188;28;20434;-65
2022/09/22 02:21:38;;;;;;;9.17;5.60;;;11.50;99.90;;;;;;4996179;28;20487;-65
2022/09/22 02:24:04;;;;;;;6.53;5.43;;;11.50;99.90;;;;;;5012002;28;20416;-65
2022/09/22 02:26:34;;;;;;;5.80;5.30;;;11.50;99.90;;;;;;5013489;28;20517;-65
2022/09/22 02:29:05;;;;;;;11.37;6.20;;;11.50;99.90;;;;;;5011880;28;20487;-66
2022/09/22 02:31:34;;;;;;;7.57;6.63;;;11.40;99.90;;;;;;5013486;28;20821;-65
2022/09/22 02:34:01;;;;;;;5.90;5.47;;;11.40;99.90;;;;;;5011406;28;20492;-72
2022/09/22 02:36:39;;;;;;;6.00;5.40;;;11.40;99.90;;;;;;5013062;28;20454;-65
2022/09/22 02:39:07;;;;;;;6.63;6.03;;;11.40;99.90;;;;;;5011840;28;20442;-65
2022/09/22 02:42:07;;;;;;;6.67;6.00;;;11.40;99.90;;;;;;5013278;28;20397;-65
2022/09/22 02:44:53;;;;;;;6.53;5.90;;;11.40;99.90;;;;;;4991586;28;20433;-65
2022/09/22 02:47:44;;;;;;;6.80;6.20;;;11.40;99.90;;;;;;4933436;29;20464;-65
2022/09/22 02:50:12;;;;;;;7.37;6.77;;;11.30;99.90;;;;;;4942353;29;20792;-65
2022/09/22 02:52:39;;;;;;;6.50;6.00;;;11.30;99.90;;;;;;4952332;29;20462;-65
2022/09/22 02:55:09;;;;;;;6.60;6.10;;;11.40;99.90;;;;;;4951772;29;20429;-65
2022/09/22 02:57:35;;;;;;;6.53;6.03;;;11.30;99.90;;;;;;4952560;29;20422;-65
2022/09/22 03:00:01;;;;;;;6.80;6.20;;;11.40;99.90;;;;;;4950292;28;21016;-66
2022/09/22 03:02:27;;;;;;;6.17;5.57;;;11.40;99.90;;;;;;4949076;29;20936;-65
2022/09/22 03:04:52;;;;;;;6.70;6.20;;;11.30;99.90;;;;;;4950481;29;20440;-65
2022/09/22 03:07:18;;;;;;;6.80;6.10;;;11.40;99.90;;;;;;4951742;29;20200;-65
2022/09/22 03:09:44;;;;;;;6.73;6.10;;;11.30;99.90;;;;;;4951208;29;20555;-65
2022/09/22 03:12:10;;;;;;;6.00;5.60;;;11.30;99.90;;;;;;4950878;29;20366;-65
2022/09/22 03:14:35;;;;;;;6.97;6.27;;;11.40;99.90;;;;;;4951278;29;20186;-65
2022/09/22 03:17:01;;;;;;;6.37;5.77;;;11.30;99.90;;;;;;4951627;29;20635;-67
2022/09/22 03:19:26;;;;;;;5.73;5.23;;;11.30;99.90;;;;;;4995254;28;20197;-65
2022/09/22 03:21:52;;;;;;;6.40;5.80;;;11.40;99.90;;;;;;5011913;28;20272;-65
2022/09/22 03:24:18;;;;;;;5.93;5.43;;;11.30;99.90;;;;;;5012135;28;20267;-65
2022/09/22 03:26:43;;;;;;;6.90;5.70;;;11.30;99.90;;;;;;5011909;28;20361;-65
2022/09/22 03:29:09;;;;;;;5.90;5.50;;;11.30;99.90;;;;;;5010323;28;20191;-65
2022/09/22 03:31:35;;;;;;;6.83;6.33;;;11.30;99.90;;;;;;5006430;28;20280;-65
2022/09/22 03:34:01;;;;;;;6.60;5.93;;;11.30;99.90;;;;;;4992680;28;20218;-65
2022/09/22 03:36:27;;;;;;;6.27;5.63;;;11.20;99.90;;;;;;4992995;28;20272;-65
2022/09/22 03:38:52;;;;;;;6.03;5.50;;;11.20;99.90;;;;;;4992793;28;20426;-65
2022/09/22 03:41:19;;;;;;;6.43;5.93;;;11.20;99.90;;;;;;5010266;28;20189;-65
2022/09/22 03:43:45;;;;;;;7.73;5.53;;;11.20;99.90;;;;;;5012706;28;20572;-65
2022/09/22 03:46:12;;;;;;;7.20;6.60;;;11.20;99.90;;;;;;5011051;28;20436;-65
2022/09/22 03:48:38;;;;;;;7.40;6.40;;;11.20;99.90;;;;;;5012265;28;20181;-65
2022/09/22 03:51:04;;;;;;;5.90;5.17;;;11.20;99.90;;;;;;5011010;28;20433;-65
2022/09/22 03:53:30;;;;;;;7.20;6.70;;;11.10;99.90;;;;;;5012510;28;20761;-65
2022/09/22 03:56:14;;;;;;;6.87;5.73;;;11.10;99.90;;;;;;5010549;28;20183;-66
2022/09/22 03:58:41;;;;;;;7.00;6.50;;;11.10;99.90;;;;;;5012255;28;20248;-65
2022/09/22 04:01:09;;;;;;;7.03;6.43;;;11.20;99.90;;;;;;5010250;28;20929;-65
2022/09/22 04:03:35;;;;;;;6.13;5.63;;;11.10;99.90;;;;;;4993822;28;20891;-64
2022/09/22 04:06:01;;;;;;;6.93;6.27;;;11.10;99.90;;;;;;4997845;28;20445;-65
2022/09/22 04:08:27;;;;;;;7.70;6.93;;;11.10;99.90;;;;;;4992122;28;20453;-65
2022/09/22 04:10:53;;;;;;;5.43;5.03;;;11.10;99.90;;;;;;5009051;28;20769;-65
2022/09/22 04:13:19;;;;;;;6.63;6.00;;;11.00;99.90;;;;;;5013564;28;20211;-65
2022/09/22 04:15:45;;;;;;;6.00;5.40;;;11.00;99.90;;;;;;5014897;28;20194;-65
2022/09/22 04:18:12;;;;;;;6.80;6.20;;;11.00;99.90;;;;;;5001015;28;20215;-65
2022/09/22 04:20:43;;;;;;;7.40;6.80;;;11.10;99.90;;;;;;5006494;28;20834;-65
2022/09/22 04:23:12;;;;;;;6.00;5.50;;;11.00;99.90;;;;;;5015197;28;20424;-65
2022/09/22 04:25:38;;;;;;;6.77;6.27;;;11.00;99.90;;;;;;5015735;28;20729;-64
2022/09/22 04:28:05;;;;;;;6.80;5.83;;;11.00;99.90;;;;;;5014812;28;20428;-72
2022/09/22 04:30:33;;;;;;;6.50;6.00;;;11.00;99.90;;;;;;5015108;28;20535;-64
2022/09/22 04:32:59;;;;;;;6.10;5.50;;;11.00;99.90;;;;;;5014689;28;20503;-64
2022/09/22 04:35:27;;;;;;;6.53;5.10;;;11.00;99.90;;;;;;5014423;28;20491;-65
2022/09/22 04:37:56;;;;;;;6.90;6.40;;;11.00;99.90;;;;;;5015415;28;20507;-65
2022/09/22 04:40:22;;;;;;;5.87;5.30;;;11.10;99.90;;;;;;5013118;28;20498;-65
2022/09/22 04:42:49;;;;;;;6.47;5.20;;;11.00;99.90;;;;;;5014758;28;20438;-65
2022/09/22 04:45:15;;;;;;;6.70;6.10;;;10.90;99.90;;;;;;5014405;28;20890;-65
2022/09/22 04:47:45;;;;;;;6.83;6.27;;;10.90;99.90;;;;;;5015390;28;20773;-64
2022/09/22 04:50:14;;;;;;;8.17;7.37;;;10.90;99.90;;;;;;5013839;28;20420;-65
2022/09/22 04:52:47;;;;;;;6.97;6.27;;;10.90;99.90;;;;;;5014825;28;20524;-65
2022/09/22 04:55:14;;;;;;;6.33;5.73;;;10.80;99.90;;;;;;5013673;28;20410;-66
2022/09/22 04:57:41;;;;;;;7.33;6.70;;;10.80;99.90;;;;;;4995446;28;20417;-65
2022/09/22 05:00:07;;;;;;;7.30;6.80;;;10.80;99.90;;;;;;5001278;28;20999;-72
2022/09/22 05:02:34;;;;;;;7.43;6.83;;;10.80;99.90;;;;;;5014106;28;20523;-65
2022/09/22 05:05:00;;;;;;;6.83;6.33;;;10.80;99.90;;;;;;5014045;28;20440;-66
2022/09/22 05:07:26;;;;;;;7.80;7.17;;;10.80;99.90;;;;;;5014337;28;20763;-65
2022/09/22 05:09:51;;;;;;;7.07;6.67;;;10.80;99.90;;;;;;5013792;28;20418;-65
2022/09/22 05:12:19;;;;;;;8.20;7.50;;;10.80;99.90;;;;;;5014188;28;20218;-65
2022/09/22 05:14:45;;;;;;;6.97;6.47;;;10.80;99.90;;;;;;5013016;28;20184;-65
2022/09/22 05:17:11;;;;;;;6.50;6.10;;;10.80;99.90;;;;;;5013195;28;20873;-65
2022/09/22 05:19:36;;;;;;;8.40;7.70;;;10.80;99.90;;;;;;5013703;28;20425;-65
2022/09/22 05:22:02;;;;;;;7.80;7.17;;;10.80;99.90;;;;;;5010748;28;20437;-65
2022/09/22 05:24:28;;;;;;;8.53;7.80;;;10.80;99.90;;;;;;4994692;28;20640;-65
2022/09/22 05:26:54;;;;;;;7.70;5.43;;;10.80;99.90;;;;;;4994994;28;20463;-65
2022/09/22 05:29:20;;;;;;;6.30;5.77;;;10.80;99.90;;;;;;4993954;28;20413;-66
2022/09/22 05:31:46;;;;;;;7.20;6.50;;;10.80;99.90;;;;;;5008707;28;20250;-65
2022/09/22 05:34:12;;;;;;;8.57;5.47;;;10.80;99.90;;;;;;5011717;28;20186;-65
2022/09/22 05:36:40;;;;;;;9.03;6.00;;;10.80;99.90;;;;;;5014424;28;20975;-65
2022/09/22 05:39:06;;;;;;;5.17;4.77;;;10.80;99.90;;;;;;5014010;28;20932;-64
2022/09/22 05:41:32;;;;;;;8.27;5.77;;;10.80;99.90;;;;;;5009389;28;20428;-65
2022/09/22 05:43:58;;;;;;;6.60;5.73;;;10.80;99.90;;;;;;5014289;28;20427;-65
2022/09/22 05:46:23;;;;;;;6.30;5.73;;;10.90;99.90;;;;;;5013520;28;20556;-65
2022/09/22 05:48:49;;;;;;;7.17;6.43;;;10.80;99.90;;;;;;4996061;28;20175;-65
2022/09/22 05:51:15;;;;;;;9.03;6.23;;;10.90;99.90;;;;;;5011497;28;20193;-65
2022/09/22 05:53:40;;;;;;;6.33;5.67;;;10.90;99.90;;;;;;5013631;28;20623;-65
2022/09/22 05:56:06;;;;;;;7.17;5.70;;;10.90;99.90;;;;;;5013851;28;20181;-65
2022/09/22 05:58:32;;;;;;;8.47;7.33;;;10.90;99.90;;;;;;5013007;28;20180;-65
2022/09/22 06:00:57;;;;;;;9.10;6.83;;;10.90;99.90;;;;;;5011286;28;20203;-65
2022/09/22 06:03:23;;;;;;;10.80;7.53;;;11.00;99.90;;;;;;5011569;28;20187;-65
2022/09/22 06:05:49;;;;;;;11.30;7.87;;;11.00;99.90;;;;;;5012437;28;20637;-65
2022/09/22 06:08:15;;;;;;;12.30;8.23;;;11.00;99.90;;;;;;5013171;28;20183;-65
2022/09/22 06:10:44;;;;;;;10.63;9.47;;;11.10;99.90;;;;;;5011210;28;20477;-65
2022/09/22 06:13:10;;;;;;;11.80;7.10;;;11.20;99.90;;;;;;5013333;28;20752;-65
2022/09/22 06:15:37;;;;;;;9.57;7.67;;;11.20;99.90;;;;;;5012861;28;20439;-65
2022/09/22 06:18:05;;;;;;;9.80;8.10;;;11.20;99.90;;;;;;5012542;28;20441;-65
2022/09/22 06:20:35;;;;;;;9.23;8.23;;;11.30;99.90;;;;;;5010917;28;20507;-65
2022/09/22 06:23:00;;;;;;;9.43;8.00;;;11.40;99.90;;;;;;5000044;28;20466;-65
2022/09/22 06:25:29;;;;;;;11.30;8.40;;;11.40;99.90;;;;;;4993296;28;20458;-65
2022/09/22 06:28:00;;;;;;;10.37;7.50;;;11.60;99.90;;;;;;5004344;28;20187;-64
2022/09/22 06:30:26;;;;;;;11.30;8.70;;;11.60;99.90;;;;;;5010266;28;20430;-69
2022/09/22 06:32:55;;;;;;;10.87;8.00;;;11.70;99.90;;;;;;5011159;28;21032;-65
2022/09/22 06:35:21;;;;;;;9.50;8.50;;;11.80;99.90;;;;;;5011197;28;20469;-65
2022/09/22 06:37:49;;;;;;;11.33;9.33;;;11.80;99.90;;;;;;5013244;28;20468;-68
2022/09/22 06:40:15;;;;;;;11.53;10.30;;;11.80;99.90;;;;;;5011136;28;20457;-67
2022/09/22 06:42:41;;;;;;;14.77;8.87;;;11.90;99.90;;;;;;5010355;28;20472;-66
2022/09/22 06:45:07;;;;;;;14.23;9.87;;;12.00;99.90;;;;;;5012313;28;20672;-66
2022/09/22 06:47:33;;;;;;;14.97;9.90;;;12.00;99.90;;;;;;5006890;28;20916;-66
2022/09/22 06:50:03;;;;;;;18.77;10.20;;;12.00;99.90;;;;;;5002576;28;20411;-66
2022/09/22 06:52:31;;;;;;;17.63;11.03;;;12.10;99.90;;;;;;5005127;28;20259;-66
2022/09/22 06:55:00;;;;;;;9.93;6.10;;;12.10;99.90;;;;;;5003413;28;20425;-67
2022/09/22 06:57:31;;;;;;;8.10;7.27;;;12.50;99.90;;;;;;5000758;28;20415;-67
2022/09/22 06:59:58;;;;;;;7.90;6.67;;;13.80;99.90;;;;;;5002306;28;20458;-67
2022/09/22 07:02:26;;;;;;;6.50;5.90;;;14.80;99.90;;;;;;5001406;28;20517;-68
2022/09/22 07:04:58;;;;;;;11.97;8.70;;;15.50;99.90;;;;;;5000011;28;20423;-65
2022/09/22 07:07:30;;;;;;;12.13;10.07;;;16.10;99.90;;;;;;5004126;28;20403;-64
2022/09/22 07:09:57;;;;;;;9.57;8.57;;;16.10;97.30;;;;;;5000957;28;20857;-63
2022/09/22 07:12:24;;;;;;;11.93;9.37;;;15.80;95.40;;;;;;5000368;28;20810;-64
2022/09/22 07:14:51;;;;;;;10.30;9.30;;;15.60;94.80;;;;;;5000854;28;20482;-64
2022/09/22 07:17:19;;;;;;;12.50;9.93;;;15.30;94.70;;;;;;5002092;28;20517;-64
2022/09/22 07:19:50;;;;;;;16.73;9.10;;;15.10;95.10;;;;;;4969855;28;20952;-63
2022/09/22 07:22:17;;;;;;;10.70;9.53;;;14.80;95.50;;;;;;5002919;28;20753;-63
2022/09/22 07:24:44;;;;;;;11.37;10.37;;;14.60;96.00;;;;;;5004242;28;20423;-64
2022/09/22 07:27:10;;;;;;;10.60;9.30;;;14.40;97.00;;;;;;5001035;28;20900;-64
2022/09/22 07:29:36;;;;;;;13.53;10.10;;;14.20;97.70;;;;;;5003872;28;20456;-63
2022/09/22 07:32:02;;;;;;;12.17;9.30;;;14.00;98.30;;;;;;5003026;28;20474;-64
2022/09/22 07:34:28;;;;;;;11.30;10.20;;;13.90;99.00;;;;;;5002998;28;20863;-64
2022/09/22 07:36:54;;;;;;;11.60;10.40;;;13.80;99.50;;;;;;5001859;28;20540;-65
2022/09/22 07:39:20;;;;;;;11.10;10.00;;;13.70;99.90;;;;;;4998585;28;20444;-64
2022/09/22 07:41:46;;;;;;;10.27;9.17;;;13.60;99.90;;;;;;5002814;28;20204;-63
2022/09/22 07:46:59;;;;;;;9.03;8.13;;;13.50;99.90;;;;;;5004205;28;20517;-64
2022/09/22 07:49:25;;;;;;;10.03;8.37;;;13.40;99.90;;;;;;5008952;28;20422;-64
2022/09/22 07:51:56;;;;;;;10.80;9.80;;;13.40;99.90;;;;;;5005747;28;20951;-64
2022/09/22 07:54:22;;;;;;;9.53;8.63;;;13.30;99.90;;;;;;5003968;28;20417;-64
2022/09/22 07:56:54;;;;;;;11.50;9.47;;;13.30;99.90;;;;;;5010105;28;20414;-63
2022/09/22 07:59:19;;;;;;;169.10;124.17;;;13.40;99.90;;;;;;5015678;28;20422;-64
2022/09/22 08:01:47;;;;;;;80.60;49.13;;;13.40;99.90;;;;;;5015270;28;20461;-63
2022/09/22 08:04:17;;;;;;;217.07;135.77;;;13.50;99.90;;;;;;5008932;28;20212;-65
2022/09/22 08:06:44;;;;;;;40.80;26.63;;;13.50;99.90;;;;;;4992304;28;20843;-64
2022/09/22 08:09:11;;;;;;;19.20;13.87;;;13.60;99.90;;;;;;4986420;28;20432;-64
2022/09/22 08:11:37;;;;;;;11.83;8.80;;;13.60;99.90;;;;;;4980257;28;20786;-63
2022/09/22 08:14:06;;;;;;;124.13;82.57;;;13.70;99.90;;;;;;5015684;28;20845;-64
2022/09/22 08:16:38;;;;;;;263.60;162.97;;;13.80;99.90;;;;;;5015213;28;20443;-64
2022/09/22 08:19:11;;;;;;;66.00;44.80;;;13.90;99.90;;;;;;5014757;28;20468;-64
2022/09/22 08:21:42;;;;;;;32.20;23.33;;;14.00;99.90;;;;;;5014410;28;20532;-64
2022/09/22 08:24:10;;;;;;;12.37;9.17;;;14.10;99.90;;;;;;4999342;28;20425;-64
2022/09/22 08:26:40;;;;;;;11.20;8.87;;;14.10;99.90;;;;;;4995416;28;20411;-64
2022/09/22 08:29:06;;;;;;;10.30;9.03;;;14.20;99.90;;;;;;5002193;28;20852;-64
2022/09/22 08:31:34;;;;;;;9.50;8.37;;;14.20;99.90;;;;;;5014880;28;20460;-64
2022/09/22 08:34:00;;;;;;;8.33;7.23;;;14.30;99.90;;;;;;5015487;28;20832;-65
2022/09/22 08:36:26;;;;;;;8.13;7.53;;;14.40;99.90;;;;;;5014882;28;20820;-64
2022/09/22 08:39:00;;;;;;;685.00;403.60;;;14.50;99.90;;;;;;5014303;28;20473;-65
2022/09/22 08:41:37;;;;;;;342.00;210.87;;;14.60;99.90;;;;;;5014842;28;20418;-64
2022/09/22 08:44:05;;;;;;;47.43;33.60;;;14.70;99.90;;;;;;5015559;28;20413;-64
2022/09/22 08:46:38;;;;;;;14.57;13.07;;;14.80;99.90;;;;;;5014351;28;20786;-65
2022/09/22 08:52:42;;;;;;;9.70;8.77;;;15.00;99.90;;;;;;5003780;28;20470;-64
2022/09/22 08:55:20;;;;;;;9.80;7.10;;;15.10;99.90;;;;;;5006270;28;20427;-64
2022/09/22 08:58:14;;;;;;;8.67;7.87;;;15.20;99.90;;;;;;5006358;28;20984;-64
2022/09/22 09:00:45;;;;;;;10.70;7.80;;;15.30;99.90;;;;;;5001613;28;20689;-66
2022/09/22 09:03:30;;;;;;;12.90;8.60;;;15.40;99.90;;;;;;5004817;28;20940;-64
2022/09/22 09:06:11;;;;;;;8.03;7.40;;;15.50;99.90;;;;;;5003322;28;20424;-64
2022/09/22 09:09:02;;;;;;;9.43;8.40;;;15.60;99.90;;;;;;5003643;28;20410;-63
2022/09/22 09:11:46;;;;;;;9.10;8.30;;;15.80;99.90;;;;;;5002788;28;20428;-64
2022/09/22 09:14:26;;;;;;;9.80;8.30;;;16.00;99.50;;;;;;5001445;28;20434;-65
2022/09/22 09:17:12;;;;;;;7.63;6.93;;;16.00;99.30;;;;;;4988366;28;20869;-64
2022/09/22 09:19:42;;;;;;;7.43;6.90;;;16.20;99.90;;;;;;5004962;28;20502;-64
2022/09/22 09:22:23;;;;;;;7.50;6.90;;;16.40;98.90;;;;;;5005272;28;20422;-64
2022/09/22 09:25:01;;;;;;;8.03;7.43;;;16.60;98.20;;;;;;5006926;28;20460;-64
2022/09/22 09:27:33;;;;;;;8.00;7.50;;;16.90;99.90;;;;;;5003512;28;20835;-64
2022/09/22 09:30:05;;;;;;;7.40;6.70;;;17.10;99.10;;;;;;5002710;28;20408;-63
2022/09/22 09:32:51;;;;;;;7.30;6.50;;;17.40;98.20;;;;;;5005324;28;20489;-64
2022/09/22 09:35:23;;;;;;;7.60;7.03;;;17.70;98.50;;;;;;5003904;28;20474;-64
2022/09/22 09:37:49;;;;;;;7.60;7.10;;;17.90;96.70;;;;;;5002292;28;20941;-64
2022/09/22 09:40:18;;;;;;;4.90;4.60;;;18.20;94.80;;;;;;5003714;28;20418;-64
2022/09/22 09:42:46;;;;;;;5.83;5.50;;;18.50;93.00;;;;;;5004533;28;20426;-65
2022/09/22 09:45:18;;;;;;;5.93;5.53;;;18.80;90.40;;;;;;5005667;28;20438;-64
2022/09/22 09:48:05;;;;;;;5.43;5.03;;;19.10;91.30;;;;;;5002419;28;20430;-64
2022/09/22 09:50:31;;;;;;;5.10;4.80;;;19.30;89.70;;;;;;4952460;29;20409;-64
2022/09/22 09:52:58;;;;;;;6.10;5.47;;;19.30;90.70;;;;;;4952941;29;20850;-64
2022/09/22 09:55:27;;;;;;;5.10;4.70;;;19.40;91.20;;;;;;4952294;29;20747;-68
2022/09/22 09:58:10;;;;;;;4.80;4.50;;;19.40;87.90;;;;;;4952654;29;20421;-67
2022/09/22 10:00:56;;;;;;;4.60;4.30;;;19.40;85.50;;;;;;4952084;29;20464;-64
2022/09/22 10:03:28;;;;;;;4.93;4.53;;;19.30;88.20;;;;;;4952868;29;20420;-64
2022/09/22 10:06:01;;;;;;;4.80;4.50;;;19.20;88.50;;;;;;4952523;29;20535;-64
2022/09/22 10:08:30;;;;;;;14.53;10.70;;;19.20;91.00;;;;;;4950945;28;20524;-65
2022/09/22 10:10:58;;;;;;;44.20;33.33;;;19.20;95.70;;;;;;4952720;29;20511;-64
2022/09/22 10:13:32;;;;;;;6.50;5.90;;;19.30;93.60;;;;;;4952560;29;20472;-64
2022/09/22 10:16:19;;;;;;;21.20;16.80;;;19.40;91.30;;;;;;4951812;29;20428;-64
2022/09/22 10:18:46;;;;;;;16.03;13.80;;;19.40;94.70;;;;;;4934847;29;20532;-63
2022/09/22 10:21:22;;;;;;;16.67;14.87;;;19.40;93.00;;;;;;4951293;28;20426;-64
2022/09/22 10:23:59;;;;;;;16.10;14.00;;;19.40;93.20;;;;;;4997656;28;20425;-64
2022/09/22 10:26:32;;;;;;;6.37;5.80;;;19.50;92.20;;;;;;5004680;28;20428;-64
2022/09/22 10:29:19;;;;;;;4.10;3.80;;;19.60;90.90;;;;;;5009159;28;20434;-64
2022/09/22 10:32:04;;;;;;;4.03;3.80;;;19.70;90.40;;;;;;5002386;28;20760;-64
2022/09/22 10:34:39;;;;;;;5.60;5.17;;;19.70;88.90;;;;;;5005268;28;20761;-64
2022/09/22 10:37:10;;;;;;;3.03;2.93;;;19.70;87.40;;;;;;5001394;28;20500;-63
2022/09/22 10:39:49;;;;;;;8.13;7.40;;;19.60;82.10;;;;;;5003254;28;20493;-63
2022/09/22 10:42:36;;;;;;;9.17;6.03;;;19.70;87.90;;;;;;5002230;28;20411;-64
2022/09/22 10:45:13;;;;;;;4.40;2.47;;;19.80;84.50;;;;;;4996713;28;20403;-64
2022/09/22 10:47:56;;;;;;;2.63;2.43;;;19.70;70.50;;;;;;4999506;28;20888;-64
2022/09/22 10:50:43;;;;;;;11.77;10.57;;;18.90;71.50;;;;;;5001836;28;20427;-64
2022/09/22 10:53:28;;;;;;;2.33;2.23;;;19.00;84.80;;;;;;5001931;28;20539;-63
2022/09/22 10:56:28;;;;;;;75.57;56.40;;;19.20;76.50;;;;;;5002329;28;20477;-64
2022/09/22 10:59:09;;;;;;;67.07;49.80;;;19.20;82.40;;;;;;5000457;28;20431;-64
2022/09/22 11:01:56;;;;;;;6.87;5.10;;;19.50;85.90;;;;;;5004114;28;20493;-64
2022/09/22 11:05:15;;;;;;;3.40;3.20;;;19.80;78.10;;;;;;5003296;28;20435;-63
2022/09/22 11:14:26;;;;;;;3.50;3.30;;;19.00;68.40;;;;;;5000843;28;20426;-64
2022/09/22 11:17:14;;;;;;;2.27;2.20;;;18.80;69.60;;;;;;4969061;28;20419;-63
2022/09/22 11:19:54;;;;;;;2.50;2.40;;;18.70;68.50;;;;;;5006902;28;20521;-64
2022/09/22 11:22:36;;;;;;;11.50;10.27;;;18.90;69.40;;;;;;5009055;28;20801;-64
2022/09/22 11:25:33;;;;;;;13.30;11.90;;;19.20;77.20;;;;;;5009525;28;20403;-63
2022/09/22 11:28:16;;;;;;;3.57;3.37;;;19.70;77.80;;;;;;4964613;28;20455;-64
2022/09/22 11:30:50;;;;;;;6.10;5.60;;;20.10;74.40;;;;;;5009071;28;20423;-64
2022/09/22 11:33:57;;;;;;;3.00;2.90;;;20.40;72.20;;;;;;5010543;28;20453;-64
2022/09/22 11:36:26;;;;;;;3.00;2.90;;;20.60;68.20;;;;;;4974469;28;20471;-64
2022/09/22 11:39:03;;;;;;;6.13;2.70;;;20.70;62.50;;;;;;5008383;28;20445;-64
2022/09/22 11:41:38;;;;;;;3.73;3.53;;;20.60;63.90;;;;;;5010386;28;20422;-64
2022/09/22 11:44:22;;;;;;;3.70;3.50;;;20.80;66.80;;;;;;5008118;28;20421;-63
2022/09/22 11:46:54;;;;;;;5.80;5.30;;;21.00;66.00;;;;;;4982944;28;20414;-64
2022/09/22 11:49:36;;;;;;;3.23;3.13;;;21.20;66.30;;;;;;5010407;28;20463;-64
2022/09/22 11:52:11;;;;;;;100.97;78.83;;;21.20;67.40;;;;;;4981932;28;20485;-64
2022/09/22 11:55:01;;;;;;;33.50;28.83;;;21.40;59.20;;;;;;5008697;28;20445;-64
2022/09/22 11:57:32;;;;;;;4.27;4.00;;;21.60;59.80;;;;;;5009164;28;20433;-64
2022/09/22 12:00:07;;;;;;;2.60;2.50;;;21.60;60.70;;;;;;5007197;28;20407;-64
2022/09/22 12:02:37;;;;;;;2.50;2.40;;;21.50;59.40;;;;;;5007448;28;20421;-64
2022/09/22 12:05:15;;;;;;;4.40;3.90;;;21.50;60.20;;;;;;5007135;28;20449;-64
2022/09/22 12:08:01;;;;;;;11.90;10.67;;;21.60;60.60;;;;;;5006206;28;20417;-64
2022/09/22 12:10:37;;;;;;;3.27;3.10;;;21.40;62.00;;;;;;5009635;28;20452;-64
2022/09/22 12:13:08;;;;;;;2.70;2.60;;;21.10;59.40;;;;;;5009219;28;20454;-64
2022/09/22 12:16:01;;;;;;;4.50;2.10;;;21.10;60.10;;;;;;5009462;28;20473;-64
2022/09/22 12:19:04;;;;;;;3.27;2.97;;;21.10;59.60;;;;;;5009587;28;20398;-64
2022/09/22 12:21:44;;;;;;;2.50;2.40;;;21.00;60.40;;;;;;4972926;28;20417;-64
2022/09/22 12:24:11;;;;;;;2.60;2.50;;;20.80;59.60;;;;;;5009550;28;20497;-64
2022/09/22 12:26:40;;;;;;;3.37;3.27;;;20.30;57.90;;;;;;4992306;28;20973;-63
2022/09/22 12:29:14;;;;;;;2.70;2.60;;;20.00;59.20;;;;;;4987590;28;20418;-63
2022/09/22 12:31:47;;;;;;;3.00;2.90;;;19.90;58.40;;;;;;4986379;28;20517;-64
2022/09/22 12:34:35;;;;;;;2.30;2.20;;;19.80;59.20;;;;;;4987951;28;20804;-63
2022/09/22 12:37:28;;;;;;;9.60;7.93;;;19.60;62.70;;;;;;4984839;28;20463;-64
2022/09/22 12:39:54;;;;;;;148.03;111.80;;;19.70;66.30;;;;;;4981258;28;20419;-64
2022/09/22 12:42:40;;;;;;;15.90;14.20;;;20.00;66.30;;;;;;4981386;28;20569;-64
2022/09/22 12:45:14;;;;;;;9.93;7.77;;;20.10;65.80;;;;;;4988389;28;20555;-64
2022/09/22 12:47:41;;;;;;;3.13;3.03;;;20.20;66.20;;;;;;4981600;28;20419;-64
2022/09/22 12:50:36;;;;;;;5.00;4.70;;;20.00;61.70;;;;;;4984426;28;20820;-64
2022/09/22 12:53:03;;;;;;;3.60;3.47;;;20.00;64.10;;;;;;4965178;28;20860;-63
2022/09/22 12:55:37;;;;;;;2.83;2.70;;;19.60;60.40;;;;;;4973858;28;20897;-63
2022/09/22 13:17:40;;;;;;;3.60;3.50;;;18.90;67.90;;;;;;5088565;28;20565;-63
2022/09/22 13:20:14;;;;;;;3.50;3.40;;;18.90;64.90;;;;;;5065134;28;20934;-68
2022/09/22 13:22:39;;;;;;;2.97;2.70;;;19.10;67.20;;;;;;5067832;28;20446;-69
2022/09/22 13:25:18;;;;;;;2.70;2.60;;;19.30;65.10;;;;;;5069881;28;20412;-69
2022/09/22 13:27:44;;;;;;;2.67;2.50;;;19.40;62.00;;;;;;5049244;28;20655;-67
2022/09/22 13:30:14;;;;;;;2.60;2.40;;;19.50;65.40;;;;;;5069334;28;20459;-63
2022/09/22 13:32:48;;;;;;;2.87;2.60;;;19.60;60.90;;;;;;5069080;28;20411;-64
2022/09/22 13:35:37;;;;;;;2.77;2.57;;;19.80;62.80;;;;;;5069601;28;20473;-63
2022/09/22 13:38:04;;;;;;;4.20;4.00;;;19.90;64.30;;;;;;5068994;28;20429;-63
2022/09/22 13:40:33;;;;;;;3.10;3.00;;;19.90;61.00;;;;;;5083339;28;20435;-63